Romulus, Michigan
Current Conditions -  °F | °C
As of 6:53 AM on Thursday 18 Dec 2014 (Local Time) from KDTW Reporting Station
Overcast Overcast  
Wind Chill: 23°   Ceiling: 2000
Heat Index: 30°   Visibility: 10mi
Dew Point: 23°   Wind: 7mph
Humidity: 75%   Direction: 260°W
Pressure: 30.2"   Gusts: NA
Location:  42.22°N, 83.38°W
Report Text: KDTW 181153Z 26006KT 10SM OVC020 M01/M05 A3020 RMK AO2 SLP234 T10111050 11011 21017 53002 $
Loading
Personal Weather Stations






























Interactive Weather Map New forecast layout! Learn more

10-Day Weather Forecast

Advertisements
Track Severe Weather on mobile